sensor_id;sensor_type;location;lat;lon;timestamp;P1;durP1;ratioP1;P2;durP2;ratioP2
29838;SDS011;18669;53.356;-1.464;2022-10-16T07:06:19;2.22;;;0.68;;
29838;SDS011;18669;53.356;-1.464;2022-10-16T07:08:48;3.97;;;1.05;;
29838;SDS011;18669;53.356;-1.464;2022-10-16T07:11:18;6.25;;;1.25;;
29838;SDS011;18669;53.356;-1.464;2022-10-16T07:13:46;2.78;;;1.00;;
29838;SDS011;18669;53.356;-1.464;2022-10-16T07:16:15;2.58;;;1.00;;
29838;SDS011;18669;53.356;-1.464;2022-10-16T07:18:43;4.28;;;0.88;;
29838;SDS011;18669;53.356;-1.464;2022-10-16T07:21:12;1.90;;;0.80;;
29838;SDS011;18669;53.356;-1.464;2022-10-16T07:23:40;3.50;;;0.85;;
29838;SDS011;18669;53.356;-1.464;2022-10-16T07:26:07;2.28;;;0.73;;
29838;SDS011;18669;53.356;-1.464;2022-10-16T07:28:34;0.82;;;0.60;;
29838;SDS011;18669;53.356;-1.464;2022-10-16T07:31:02;4.63;;;0.70;;
29838;SDS011;18669;53.356;-1.464;2022-10-16T07:33:30;2.95;;;0.70;;
29838;SDS011;18669;53.356;-1.464;2022-10-16T07:35:57;4.15;;;0.85;;
29838;SDS011;18669;53.356;-1.464;2022-10-16T07:40:55;3.58;;;0.90;;
29838;SDS011;18669;53.356;-1.464;2022-10-16T07:43:32;5.50;;;1.08;;
29838;SDS011;18669;53.356;-1.464;2022-10-16T07:45:59;3.40;;;0.80;;
29838;SDS011;18669;53.356;-1.464;2022-10-16T07:48:29;2.63;;;0.80;;
29838;SDS011;18669;53.356;-1.464;2022-10-16T07:51:01;3.03;;;0.73;;
29838;SDS011;18669;53.356;-1.464;2022-10-16T07:53:30;3.47;;;0.77;;
29838;SDS011;18669;53.356;-1.464;2022-10-16T07:55:58;5.88;;;1.00;;
29838;SDS011;18669;53.356;-1.464;2022-10-16T07:58:29;2.92;;;0.77;;
29838;SDS011;18669;53.356;-1.464;2022-10-16T08:00:56;3.17;;;0.80;;
29838;SDS011;18669;53.356;-1.464;2022-10-16T08:03:23;3.75;;;1.00;;
29838;SDS011;18669;53.356;-1.464;2022-10-16T08:05:49;28.67;;;13.13;;
29838;SDS011;18669;53.356;-1.464;2022-10-16T08:08:16;2.95;;;1.08;;
29838;SDS011;18669;53.356;-1.464;2022-10-16T08:10:44;3.58;;;0.88;;
29838;SDS011;18669;53.356;-1.464;2022-10-16T08:13:10;3.70;;;0.98;;
29838;SDS011;18669;53.356;-1.464;2022-10-16T08:15:38;6.28;;;1.40;;
29838;SDS011;18669;53.356;-1.464;2022-10-16T08:18:05;5.00;;;1.05;;
29838;SDS011;18669;53.356;-1.464;2022-10-16T08:20:31;6.88;;;1.30;;
29838;SDS011;18669;53.356;-1.464;2022-10-16T08:22:58;4.95;;;0.95;;
29838;SDS011;18669;53.356;-1.464;2022-10-16T08:25:25;2.85;;;0.95;;
29838;SDS011;18669;53.356;-1.464;2022-10-16T08:27:52;6.07;;;0.88;;
29838;SDS011;18669;53.356;-1.464;2022-10-16T08:30:18;4.07;;;0.73;;
29838;SDS011;18669;53.356;-1.464;2022-10-16T08:32:46;6.28;;;1.00;;
29838;SDS011;18669;53.356;-1.464;2022-10-16T08:35:12;3.60;;;1.05;;
29838;SDS011;18669;53.356;-1.464;2022-10-16T08:37:39;5.75;;;0.90;;
29838;SDS011;18669;53.356;-1.464;2022-10-16T08:50:52;5.97;;;0.98;;
29838;SDS011;18669;53.356;-1.464;2022-10-16T08:53:31;4.07;;;1.35;;
29838;SDS011;18669;53.356;-1.464;2022-10-16T08:56:04;5.32;;;1.15;;
29838;SDS011;18669;53.356;-1.464;2022-10-16T08:58:31;6.28;;;1.40;;
29838;SDS011;18669;53.356;-1.464;2022-10-16T09:01:01;3.20;;;1.30;;
29838;SDS011;18669;53.356;-1.464;2022-10-16T09:08:37;2.03;;;1.05;;
29838;SDS011;18669;53.356;-1.464;2022-10-16T09:11:18;3.05;;;1.00;;
29838;SDS011;18669;53.356;-1.464;2022-10-16T09:14:01;2.58;;;0.77;;
29838;SDS011;18669;53.356;-1.464;2022-10-16T09:16:32;5.80;;;0.88;;
29838;SDS011;18669;53.356;-1.464;2022-10-16T09:19:12;2.83;;;1.13;;
29838;SDS011;18669;53.356;-1.464;2022-10-16T09:21:48;2.65;;;1.10;;
29838;SDS011;18669;53.356;-1.464;2022-10-16T09:24:15;4.15;;;1.10;;
29838;SDS011;18669;53.356;-1.464;2022-10-16T09:26:44;3.92;;;1.20;;
29838;SDS011;18669;53.356;-1.464;2022-10-16T09:29:12;2.30;;;1.27;;
29838;SDS011;18669;53.356;-1.464;2022-10-16T09:31:42;1.90;;;1.20;;
29838;SDS011;18669;53.356;-1.464;2022-10-16T09:34:27;3.17;;;1.00;;
29838;SDS011;18669;53.356;-1.464;2022-10-16T09:37:00;2.42;;;0.85;;
29838;SDS011;18669;53.356;-1.464;2022-10-16T09:39:31;4.15;;;1.00;;
29838;SDS011;18669;53.356;-1.464;2022-10-16T09:42:32;4.70;;;0.93;;
29838;SDS011;18669;53.356;-1.464;2022-10-16T09:45:01;2.75;;;0.55;;
29838;SDS011;18669;53.356;-1.464;2022-10-16T09:47:28;6.90;;;0.82;;
29838;SDS011;18669;53.356;-1.464;2022-10-16T09:49:57;3.65;;;0.80;;
29838;SDS011;18669;53.356;-1.464;2022-10-16T09:52:28;2.72;;;0.77;;
29838;SDS011;18669;53.356;-1.464;2022-10-16T09:54:56;5.43;;;1.38;;
29838;SDS011;18669;53.356;-1.464;2022-10-16T09:57:23;7.13;;;1.30;;
29838;SDS011;18669;53.356;-1.464;2022-10-16T09:59:54;4.20;;;1.08;;
29838;SDS011;18669;53.356;-1.464;2022-10-16T10:02:28;5.03;;;0.68;;
29838;SDS011;18669;53.356;-1.464;2022-10-16T10:04:57;4.45;;;0.98;;
29838;SDS011;18669;53.356;-1.464;2022-10-16T10:07:28;3.75;;;1.15;;
29838;SDS011;18669;53.356;-1.464;2022-10-16T10:12:28;5.25;;;0.70;;
29838;SDS011;18669;53.356;-1.464;2022-10-16T10:14:58;6.93;;;0.90;;
29838;SDS011;18669;53.356;-1.464;2022-10-16T10:17:32;4.57;;;1.05;;
29838;SDS011;18669;53.356;-1.464;2022-10-16T10:30:10;3.13;;;0.70;;
29838;SDS011;18669;53.356;-1.464;2022-10-16T10:45:58;1.77;;;0.60;;
29838;SDS011;18669;53.356;-1.464;2022-10-16T10:51:36;6.57;;;0.95;;
29838;SDS011;18669;53.356;-1.464;2022-10-16T10:54:29;3.53;;;0.60;;
29838;SDS011;18669;53.356;-1.464;2022-10-16T10:57:18;2.40;;;0.68;;
29838;SDS011;18669;53.356;-1.464;2022-10-16T11:05:49;2.33;;;0.55;;
29838;SDS011;18669;53.356;-1.464;2022-10-16T11:08:36;7.55;;;0.93;;
29838;SDS011;18669;53.356;-1.464;2022-10-16T11:16:40;3.78;;;0.80;;
29838;SDS011;18669;53.356;-1.464;2022-10-16T11:21:55;2.10;;;1.00;;
29838;SDS011;18669;53.356;-1.464;2022-10-16T11:24:35;5.07;;;0.90;;
29838;SDS011;18669;53.356;-1.464;2022-10-16T11:27:08;2.83;;;0.80;;
29838;SDS011;18669;53.356;-1.464;2022-10-16T11:29:43;2.13;;;0.73;;
29838;SDS011;18669;53.356;-1.464;2022-10-16T11:32:28;4.30;;;1.10;;
29838;SDS011;18669;53.356;-1.464;2022-10-16T11:35:02;3.63;;;0.95;;
29838;SDS011;18669;53.356;-1.464;2022-10-16T11:37:40;4.03;;;0.85;;
29838;SDS011;18669;53.356;-1.464;2022-10-16T11:40:22;4.38;;;0.75;;
29838;SDS011;18669;53.356;-1.464;2022-10-16T11:43:10;2.60;;;0.80;;
29838;SDS011;18669;53.356;-1.464;2022-10-16T11:45:43;1.60;;;0.65;;
29838;SDS011;18669;53.356;-1.464;2022-10-16T11:48:27;7.32;;;0.80;;
29838;SDS011;18669;53.356;-1.464;2022-10-16T11:51:03;4.38;;;0.70;;
29838;SDS011;18669;53.356;-1.464;2022-10-16T11:53:56;2.95;;;0.77;;
29838;SDS011;18669;53.356;-1.464;2022-10-16T11:56:35;5.22;;;0.93;;
29838;SDS011;18669;53.356;-1.464;2022-10-16T11:59:16;2.30;;;0.80;;
29838;SDS011;18669;53.356;-1.464;2022-10-16T12:07:36;2.97;;;0.60;;
29838;SDS011;18669;53.356;-1.464;2022-10-16T12:10:21;2.28;;;0.50;;
29838;SDS011;18669;53.356;-1.464;2022-10-16T12:12:50;1.58;;;0.55;;
29838;SDS011;18669;53.356;-1.464;2022-10-16T12:15:26;3.03;;;0.57;;
29838;SDS011;18669;53.356;-1.464;2022-10-16T12:17:54;1.30;;;0.60;;
29838;SDS011;18669;53.356;-1.464;2022-10-16T12:27:56;3.15;;;0.70;;
29838;SDS011;18669;53.356;-1.464;2022-10-16T12:30:26;2.38;;;0.57;;
29838;SDS011;18669;53.356;-1.464;2022-10-16T12:32:58;3.35;;;0.80;;
29838;SDS011;18669;53.356;-1.464;2022-10-16T12:35:32;2.17;;;0.57;;
29838;SDS011;18669;53.356;-1.464;2022-10-16T12:38:04;4.78;;;0.73;;
29838;SDS011;18669;53.356;-1.464;2022-10-16T12:40:34;4.30;;;0.77;;
29838;SDS011;18669;53.356;-1.464;2022-10-16T12:43:13;6.65;;;1.10;;
29838;SDS011;18669;53.356;-1.464;2022-10-16T12:48:28;3.22;;;0.80;;
29838;SDS011;18669;53.356;-1.464;2022-10-16T13:05:20;2.83;;;0.80;;
29838;SDS011;18669;53.356;-1.464;2022-10-16T13:13:42;2.20;;;0.88;;
29838;SDS011;18669;53.356;-1.464;2022-10-16T13:15:52;3.35;;;0.70;;
29838;SDS011;18669;53.356;-1.464;2022-10-16T13:18:29;5.00;;;0.93;;
29838;SDS011;18669;53.356;-1.464;2022-10-16T13:26:35;2.88;;;0.70;;
29838;SDS011;18669;53.356;-1.464;2022-10-16T13:29:09;2.10;;;0.80;;
29838;SDS011;18669;53.356;-1.464;2022-10-16T13:31:36;2.08;;;0.70;;
29838;SDS011;18669;53.356;-1.464;2022-10-16T13:34:04;4.57;;;0.73;;
29838;SDS011;18669;53.356;-1.464;2022-10-16T13:36:43;4.30;;;1.13;;
29838;SDS011;18669;53.356;-1.464;2022-10-16T13:41:38;1.63;;;0.77;;
29838;SDS011;18669;53.356;-1.464;2022-10-16T13:44:05;3.58;;;0.65;;
29838;SDS011;18669;53.356;-1.464;2022-10-16T13:46:37;4.70;;;1.13;;
29838;SDS011;18669;53.356;-1.464;2022-10-16T13:49:04;1.80;;;0.70;;
29838;SDS011;18669;53.356;-1.464;2022-10-16T13:51:36;4.00;;;0.60;;
29838;SDS011;18669;53.356;-1.464;2022-10-16T13:54:03;5.15;;;0.70;;
29838;SDS011;18669;53.356;-1.464;2022-10-16T13:56:30;6.45;;;0.80;;
29838;SDS011;18669;53.356;-1.464;2022-10-16T13:59:05;7.18;;;0.93;;
29838;SDS011;18669;53.356;-1.464;2022-10-16T14:01:33;3.78;;;1.02;;
29838;SDS011;18669;53.356;-1.464;2022-10-16T14:04:08;1.63;;;0.88;;
29838;SDS011;18669;53.356;-1.464;2022-10-16T14:06:40;4.88;;;1.10;;
29838;SDS011;18669;53.356;-1.464;2022-10-16T14:09:11;4.70;;;0.70;;
29838;SDS011;18669;53.356;-1.464;2022-10-16T14:11:44;3.25;;;0.80;;
29838;SDS011;18669;53.356;-1.464;2022-10-16T14:14:14;3.60;;;1.20;;
29838;SDS011;18669;53.356;-1.464;2022-10-16T14:16:42;2.00;;;0.73;;
29838;SDS011;18669;53.356;-1.464;2022-10-16T14:19:22;6.45;;;0.90;;
29838;SDS011;18669;53.356;-1.464;2022-10-16T14:21:51;3.83;;;1.02;;
29838;SDS011;18669;53.356;-1.464;2022-10-16T14:26:57;2.88;;;0.85;;
29838;SDS011;18669;53.356;-1.464;2022-10-16T14:29:24;4.15;;;1.20;;
29838;SDS011;18669;53.356;-1.464;2022-10-16T14:31:59;2.83;;;0.90;;
29838;SDS011;18669;53.356;-1.464;2022-10-16T14:34:37;4.72;;;1.10;;
29838;SDS011;18669;53.356;-1.464;2022-10-16T14:37:08;4.50;;;1.08;;
29838;SDS011;18669;53.356;-1.464;2022-10-16T14:39:52;1.67;;;0.70;;
29838;SDS011;18669;53.356;-1.464;2022-10-16T14:42:20;1.48;;;0.77;;
29838;SDS011;18669;53.356;-1.464;2022-10-16T14:44:51;3.05;;;0.90;;
29838;SDS011;18669;53.356;-1.464;2022-10-16T14:47:21;2.67;;;0.75;;
29838;SDS011;18669;53.356;-1.464;2022-10-16T14:49:52;3.97;;;0.80;;
29838;SDS011;18669;53.356;-1.464;2022-10-16T14:52:21;2.15;;;1.17;;
29838;SDS011;18669;53.356;-1.464;2022-10-16T14:54:48;7.55;;;4.35;;
29838;SDS011;18669;53.356;-1.464;2022-10-16T14:57:18;6.05;;;1.83;;
29838;SDS011;18669;53.356;-1.464;2022-10-16T14:59:47;6.43;;;1.00;;
29838;SDS011;18669;53.356;-1.464;2022-10-16T15:04:46;1.95;;;0.75;;
29838;SDS011;18669;53.356;-1.464;2022-10-16T15:07:13;3.08;;;1.17;;
29838;SDS011;18669;53.356;-1.464;2022-10-16T15:09:39;3.90;;;1.02;;
29838;SDS011;18669;53.356;-1.464;2022-10-16T15:12:06;3.15;;;1.08;;
29838;SDS011;18669;53.356;-1.464;2022-10-16T15:14:32;4.45;;;1.27;;
29838;SDS011;18669;53.356;-1.464;2022-10-16T15:16:58;3.63;;;1.33;;
29838;SDS011;18669;53.356;-1.464;2022-10-16T15:19:24;6.38;;;1.60;;
29838;SDS011;18669;53.356;-1.464;2022-10-16T15:21:51;3.33;;;1.25;;
29838;SDS011;18669;53.356;-1.464;2022-10-16T15:24:23;3.50;;;1.25;;
29838;SDS011;18669;53.356;-1.464;2022-10-16T15:26:49;5.03;;;1.00;;
29838;SDS011;18669;53.356;-1.464;2022-10-16T15:29:15;3.65;;;1.38;;
29838;SDS011;18669;53.356;-1.464;2022-10-16T15:31:41;10.38;;;4.95;;
29838;SDS011;18669;53.356;-1.464;2022-10-16T15:34:13;3.10;;;1.40;;
29838;SDS011;18669;53.356;-1.464;2022-10-16T15:36:39;9.30;;;4.38;;
29838;SDS011;18669;53.356;-1.464;2022-10-16T15:39:11;8.70;;;4.80;;
29838;SDS011;18669;53.356;-1.464;2022-10-16T15:41:40;10.38;;;5.60;;
29838;SDS011;18669;53.356;-1.464;2022-10-16T15:44:07;10.55;;;4.70;;
29838;SDS011;18669;53.356;-1.464;2022-10-16T15:46:33;7.35;;;1.75;;
29838;SDS011;18669;53.356;-1.464;2022-10-16T15:49:00;9.20;;;1.67;;
29838;SDS011;18669;53.356;-1.464;2022-10-16T15:51:26;17.48;;;8.82;;
29838;SDS011;18669;53.356;-1.464;2022-10-16T15:53:58;15.95;;;8.82;;
29838;SDS011;18669;53.356;-1.464;2022-10-16T15:56:27;8.10;;;3.13;;
29838;SDS011;18669;53.356;-1.464;2022-10-16T15:58:54;4.22;;;1.63;;
29838;SDS011;18669;53.356;-1.464;2022-10-16T16:01:20;8.00;;;2.60;;
29838;SDS011;18669;53.356;-1.464;2022-10-16T16:03:47;10.35;;;4.15;;
29838;SDS011;18669;53.356;-1.464;2022-10-16T16:08:40;40.75;;;21.67;;
29838;SDS011;18669;53.356;-1.464;2022-10-16T16:11:07;38.70;;;22.13;;
29838;SDS011;18669;53.356;-1.464;2022-10-16T16:13:35;46.63;;;23.15;;
29838;SDS011;18669;53.356;-1.464;2022-10-16T16:16:06;45.65;;;22.85;;
29838;SDS011;18669;53.356;-1.464;2022-10-16T16:18:33;37.17;;;20.70;;
29838;SDS011;18669;53.356;-1.464;2022-10-16T16:21:00;37.55;;;20.40;;
29838;SDS011;18669;53.356;-1.464;2022-10-16T16:23:28;43.90;;;20.30;;
29838;SDS011;18669;53.356;-1.464;2022-10-16T16:28:35;52.53;;;25.40;;
29838;SDS011;18669;53.356;-1.464;2022-10-16T16:31:02;58.30;;;29.75;;
29838;SDS011;18669;53.356;-1.464;2022-10-16T16:33:28;58.35;;;30.10;;
29838;SDS011;18669;53.356;-1.464;2022-10-16T16:35:59;50.47;;;26.75;;
29838;SDS011;18669;53.356;-1.464;2022-10-16T16:38:27;41.72;;;24.55;;
29838;SDS011;18669;53.356;-1.464;2022-10-16T16:40:54;29.48;;;17.55;;
29838;SDS011;18669;53.356;-1.464;2022-10-16T16:43:27;21.95;;;11.73;;
29838;SDS011;18669;53.356;-1.464;2022-10-16T16:45:53;15.45;;;8.23;;
29838;SDS011;18669;53.356;-1.464;2022-10-16T16:48:20;20.95;;;9.85;;
29838;SDS011;18669;53.356;-1.464;2022-10-16T16:50:48;14.80;;;5.97;;
29838;SDS011;18669;53.356;-1.464;2022-10-16T16:53:14;10.23;;;5.25;;
29838;SDS011;18669;53.356;-1.464;2022-10-16T16:55:40;11.75;;;7.38;;
29838;SDS011;18669;53.356;-1.464;2022-10-16T16:58:07;24.02;;;13.55;;
29838;SDS011;18669;53.356;-1.464;2022-10-16T17:00:33;21.23;;;11.63;;
29838;SDS011;18669;53.356;-1.464;2022-10-16T17:03:00;15.43;;;7.80;;
29838;SDS011;18669;53.356;-1.464;2022-10-16T17:05:27;16.90;;;6.75;;
29838;SDS011;18669;53.356;-1.464;2022-10-16T17:07:53;17.13;;;6.70;;
29838;SDS011;18669;53.356;-1.464;2022-10-16T17:10:20;13.55;;;5.90;;
29838;SDS011;18669;53.356;-1.464;2022-10-16T17:12:47;12.95;;;6.97;;
29838;SDS011;18669;53.356;-1.464;2022-10-16T17:17:39;12.95;;;5.45;;
29838;SDS011;18669;53.356;-1.464;2022-10-16T17:22:36;12.68;;;4.80;;
29838;SDS011;18669;53.356;-1.464;2022-10-16T17:27:29;12.48;;;8.25;;
29838;SDS011;18669;53.356;-1.464;2022-10-16T17:32:21;9.85;;;4.10;;
29838;SDS011;18669;53.356;-1.464;2022-10-16T17:34:48;6.90;;;3.72;;
29838;SDS011;18669;53.356;-1.464;2022-10-16T17:39:40;19.25;;;9.00;;
29838;SDS011;18669;53.356;-1.464;2022-10-16T17:42:06;8.35;;;4.45;;
29838;SDS011;18669;53.356;-1.464;2022-10-16T17:44:33;11.05;;;5.85;;
29838;SDS011;18669;53.356;-1.464;2022-10-16T17:46:59;14.32;;;6.72;;
29838;SDS011;18669;53.356;-1.464;2022-10-16T17:51:52;7.40;;;4.68;;
29838;SDS011;18669;53.356;-1.464;2022-10-16T17:54:18;15.07;;;5.68;;
29838;SDS011;18669;53.356;-1.464;2022-10-16T17:56:45;8.60;;;3.45;;
29838;SDS011;18669;53.356;-1.464;2022-10-16T17:59:13;10.45;;;4.10;;
29838;SDS011;18669;53.356;-1.464;2022-10-16T18:01:39;10.73;;;3.85;;
29838;SDS011;18669;53.356;-1.464;2022-10-16T18:04:07;5.65;;;3.10;;
29838;SDS011;18669;53.356;-1.464;2022-10-16T18:06:35;5.22;;;3.22;;
29838;SDS011;18669;53.356;-1.464;2022-10-16T18:09:02;6.32;;;3.83;;
29838;SDS011;18669;53.356;-1.464;2022-10-16T18:11:29;7.57;;;4.30;;
29838;SDS011;18669;53.356;-1.464;2022-10-16T18:13:56;8.85;;;4.18;;
29838;SDS011;18669;53.356;-1.464;2022-10-16T18:16:24;7.82;;;3.17;;
29838;SDS011;18669;53.356;-1.464;2022-10-16T18:18:52;5.22;;;2.92;;
29838;SDS011;18669;53.356;-1.464;2022-10-16T18:21:19;9.77;;;3.25;;
29838;SDS011;18669;53.356;-1.464;2022-10-16T18:23:46;7.97;;;3.33;;
29838;SDS011;18669;53.356;-1.464;2022-10-16T18:26:13;4.15;;;2.40;;
29838;SDS011;18669;53.356;-1.464;2022-10-16T18:28:40;8.18;;;2.85;;
29838;SDS011;18669;53.356;-1.464;2022-10-16T18:31:08;11.90;;;3.20;;
29838;SDS011;18669;53.356;-1.464;2022-10-16T18:33:37;7.03;;;3.10;;
29838;SDS011;18669;53.356;-1.464;2022-10-16T18:36:08;7.93;;;3.50;;
29838;SDS011;18669;53.356;-1.464;2022-10-16T18:38:35;8.32;;;3.47;;
29838;SDS011;18669;53.356;-1.464;2022-10-16T18:41:02;6.55;;;3.05;;
29838;SDS011;18669;53.356;-1.464;2022-10-16T18:43:31;8.75;;;2.83;;
29838;SDS011;18669;53.356;-1.464;2022-10-16T18:45:58;9.85;;;3.22;;
29838;SDS011;18669;53.356;-1.464;2022-10-16T18:48:27;6.80;;;4.03;;
29838;SDS011;18669;53.356;-1.464;2022-10-16T18:51:12;8.65;;;4.97;;
29838;SDS011;18669;53.356;-1.464;2022-10-16T18:53:42;13.35;;;3.83;;
29838;SDS011;18669;53.356;-1.464;2022-10-16T18:56:10;7.35;;;3.05;;
29838;SDS011;18669;53.356;-1.464;2022-10-16T18:58:38;7.40;;;2.85;;
29838;SDS011;18669;53.356;-1.464;2022-10-16T19:01:07;5.95;;;2.60;;
29838;SDS011;18669;53.356;-1.464;2022-10-16T19:03:35;6.55;;;2.88;;
29838;SDS011;18669;53.356;-1.464;2022-10-16T19:06:07;8.73;;;2.40;;
29838;SDS011;18669;53.356;-1.464;2022-10-16T19:08:36;6.05;;;2.95;;
29838;SDS011;18669;53.356;-1.464;2022-10-16T19:11:04;7.18;;;2.55;;
29838;SDS011;18669;53.356;-1.464;2022-10-16T19:13:33;8.85;;;3.80;;
29838;SDS011;18669;53.356;-1.464;2022-10-16T19:16:00;7.20;;;3.53;;
29838;SDS011;18669;53.356;-1.464;2022-10-16T19:18:27;5.55;;;2.30;;
29838;SDS011;18669;53.356;-1.464;2022-10-16T19:20:54;9.55;;;2.55;;
29838;SDS011;18669;53.356;-1.464;2022-10-16T19:23:20;14.20;;;2.28;;
29838;SDS011;18669;53.356;-1.464;2022-10-16T19:25:47;7.20;;;2.13;;
29838;SDS011;18669;53.356;-1.464;2022-10-16T19:30:39;5.37;;;2.20;;
29838;SDS011;18669;53.356;-1.464;2022-10-16T19:33:07;5.57;;;2.40;;
29838;SDS011;18669;53.356;-1.464;2022-10-16T19:35:33;6.32;;;2.30;;
29838;SDS011;18669;53.356;-1.464;2022-10-16T19:38:00;5.75;;;2.33;;
29838;SDS011;18669;53.356;-1.464;2022-10-16T19:40:27;8.15;;;2.40;;
29838;SDS011;18669;53.356;-1.464;2022-10-16T19:42:54;10.40;;;2.30;;
29838;SDS011;18669;53.356;-1.464;2022-10-16T19:45:20;7.28;;;3.10;;
29838;SDS011;18669;53.356;-1.464;2022-10-16T19:47:46;9.38;;;2.55;;
29838;SDS011;18669;53.356;-1.464;2022-10-16T19:50:13;11.18;;;2.70;;
29838;SDS011;18669;53.356;-1.464;2022-10-16T19:52:40;7.65;;;2.05;;
29838;SDS011;18669;53.356;-1.464;2022-10-16T19:55:07;13.45;;;1.90;;
29838;SDS011;18669;53.356;-1.464;2022-10-16T19:57:34;10.68;;;2.50;;
29838;SDS011;18669;53.356;-1.464;2022-10-16T20:00:02;8.35;;;2.50;;
29838;SDS011;18669;53.356;-1.464;2022-10-16T20:02:29;8.75;;;2.05;;
29838;SDS011;18669;53.356;-1.464;2022-10-16T20:04:56;11.60;;;3.20;;
29838;SDS011;18669;53.356;-1.464;2022-10-16T20:09:48;7.60;;;2.40;;
29838;SDS011;18669;53.356;-1.464;2022-10-16T20:12:14;8.82;;;2.28;;
29838;SDS011;18669;53.356;-1.464;2022-10-16T20:17:06;11.15;;;2.42;;
29838;SDS011;18669;53.356;-1.464;2022-10-16T20:19:33;10.05;;;1.75;;
29838;SDS011;18669;53.356;-1.464;2022-10-16T20:21:59;11.18;;;2.40;;
29838;SDS011;18669;53.356;-1.464;2022-10-16T20:24:27;10.15;;;1.85;;
29838;SDS011;18669;53.356;-1.464;2022-10-16T20:26:54;8.93;;;2.80;;
29838;SDS011;18669;53.356;-1.464;2022-10-16T20:29:21;15.60;;;2.40;;
29838;SDS011;18669;53.356;-1.464;2022-10-16T20:31:48;11.75;;;3.10;;
29838;SDS011;18669;53.356;-1.464;2022-10-16T20:34:14;10.23;;;2.25;;
29838;SDS011;18669;53.356;-1.464;2022-10-16T20:36:40;15.98;;;2.60;;
29838;SDS011;18669;53.356;-1.464;2022-10-16T20:39:10;8.90;;;2.42;;
29838;SDS011;18669;53.356;-1.464;2022-10-16T20:41:39;7.75;;;2.60;;
29838;SDS011;18669;53.356;-1.464;2022-10-16T20:44:05;7.03;;;2.13;;
29838;SDS011;18669;53.356;-1.464;2022-10-16T20:46:32;13.13;;;3.63;;
29838;SDS011;18669;53.356;-1.464;2022-10-16T20:48:59;10.30;;;2.38;;
29838;SDS011;18669;53.356;-1.464;2022-10-16T20:51:26;15.90;;;2.42;;
29838;SDS011;18669;53.356;-1.464;2022-10-16T20:53:55;14.50;;;3.28;;
29838;SDS011;18669;53.356;-1.464;2022-10-16T20:56:24;12.60;;;2.80;;
29838;SDS011;18669;53.356;-1.464;2022-10-16T20:58:52;13.88;;;2.92;;
29838;SDS011;18669;53.356;-1.464;2022-10-16T21:01:19;15.75;;;2.95;;
29838;SDS011;18669;53.356;-1.464;2022-10-16T21:03:49;9.73;;;2.55;;
29838;SDS011;18669;53.356;-1.464;2022-10-16T21:06:17;11.60;;;2.60;;
29838;SDS011;18669;53.356;-1.464;2022-10-16T21:08:43;18.67;;;3.83;;
29838;SDS011;18669;53.356;-1.464;2022-10-16T21:11:14;15.80;;;3.67;;
29838;SDS011;18669;53.356;-1.464;2022-10-16T21:13:42;11.77;;;2.63;;
29838;SDS011;18669;53.356;-1.464;2022-10-16T21:16:09;19.50;;;2.95;;
29838;SDS011;18669;53.356;-1.464;2022-10-16T21:18:37;13.05;;;2.58;;
29838;SDS011;18669;53.356;-1.464;2022-10-16T21:21:04;11.63;;;3.30;;
29838;SDS011;18669;53.356;-1.464;2022-10-16T21:23:31;19.00;;;3.08;;
29838;SDS011;18669;53.356;-1.464;2022-10-16T21:25:58;6.40;;;2.30;;
29838;SDS011;18669;53.356;-1.464;2022-10-16T21:28:31;21.45;;;4.03;;
29838;SDS011;18669;53.356;-1.464;2022-10-16T21:30:58;20.05;;;4.40;;
29838;SDS011;18669;53.356;-1.464;2022-10-16T21:33:24;12.55;;;3.17;;
29838;SDS011;18669;53.356;-1.464;2022-10-16T21:35:51;11.02;;;3.30;;
29838;SDS011;18669;53.356;-1.464;2022-10-16T21:38:21;15.20;;;4.22;;
29838;SDS011;18669;53.356;-1.464;2022-10-16T21:40:47;18.73;;;3.08;;
29838;SDS011;18669;53.356;-1.464;2022-10-16T21:45:39;13.73;;;3.00;;
29838;SDS011;18669;53.356;-1.464;2022-10-16T21:50:32;14.00;;;3.08;;
29838;SDS011;18669;53.356;-1.464;2022-10-16T21:55:23;15.73;;;3.03;;
29838;SDS011;18669;53.356;-1.464;2022-10-16T22:00:15;9.57;;;2.63;;
29838;SDS011;18669;53.356;-1.464;2022-10-16T22:02:43;20.42;;;3.40;;
29838;SDS011;18669;53.356;-1.464;2022-10-16T22:05:10;10.23;;;3.45;;
29838;SDS011;18669;53.356;-1.464;2022-10-16T22:07:37;11.73;;;3.50;;
29838;SDS011;18669;53.356;-1.464;2022-10-16T22:10:05;10.27;;;3.47;;
29838;SDS011;18669;53.356;-1.464;2022-10-16T22:12:32;10.80;;;4.00;;
29838;SDS011;18669;53.356;-1.464;2022-10-16T22:17:25;11.43;;;4.37;;
29838;SDS011;18669;53.356;-1.464;2022-10-16T22:19:52;10.50;;;4.30;;
29838;SDS011;18669;53.356;-1.464;2022-10-16T22:24:44;11.15;;;3.90;;
29838;SDS011;18669;53.356;-1.464;2022-10-16T22:27:11;11.07;;;4.15;;
29838;SDS011;18669;53.356;-1.464;2022-10-16T22:32:05;13.93;;;4.25;;
29838;SDS011;18669;53.356;-1.464;2022-10-16T22:36:57;10.60;;;4.50;;
29838;SDS011;18669;53.356;-1.464;2022-10-16T22:39:23;8.68;;;4.20;;
29838;SDS011;18669;53.356;-1.464;2022-10-16T22:44:15;9.27;;;4.38;;
29838;SDS011;18669;53.356;-1.464;2022-10-16T22:46:41;10.07;;;3.60;;
29838;SDS011;18669;53.356;-1.464;2022-10-16T22:49:08;11.38;;;3.78;;
29838;SDS011;18669;53.356;-1.464;2022-10-16T22:51:34;11.82;;;3.88;;
29838;SDS011;18669;53.356;-1.464;2022-10-16T22:54:00;9.85;;;3.83;;
29838;SDS011;18669;53.356;-1.464;2022-10-16T22:56:26;9.45;;;3.78;;
29838;SDS011;18669;53.356;-1.464;2022-10-16T22:58:53;11.55;;;3.95;;
29838;SDS011;18669;53.356;-1.464;2022-10-16T23:03:53;7.00;;;3.67;;
29838;SDS011;18669;53.356;-1.464;2022-10-16T23:08:49;10.00;;;3.85;;
29838;SDS011;18669;53.356;-1.464;2022-10-16T23:11:16;9.45;;;4.45;;
29838;SDS011;18669;53.356;-1.464;2022-10-16T23:16:09;4.70;;;3.10;;
29838;SDS011;18669;53.356;-1.464;2022-10-16T23:18:38;6.05;;;2.95;;
29838;SDS011;18669;53.356;-1.464;2022-10-16T23:21:05;8.55;;;4.05;;
29838;SDS011;18669;53.356;-1.464;2022-10-16T23:23:34;5.88;;;3.45;;
29838;SDS011;18669;53.356;-1.464;2022-10-16T23:26:01;6.32;;;3.40;;
29838;SDS011;18669;53.356;-1.464;2022-10-16T23:28:27;8.00;;;3.65;;
29838;SDS011;18669;53.356;-1.464;2022-10-16T23:30:54;8.45;;;3.60;;
29838;SDS011;18669;53.356;-1.464;2022-10-16T23:33:20;6.60;;;3.08;;
29838;SDS011;18669;53.356;-1.464;2022-10-16T23:38:12;7.95;;;3.55;;
29838;SDS011;18669;53.356;-1.464;2022-10-16T23:43:04;5.78;;;3.28;;
29838;SDS011;18669;53.356;-1.464;2022-10-16T23:45:30;4.85;;;3.20;;
29838;SDS011;18669;53.356;-1.464;2022-10-16T23:50:23;5.50;;;4.30;;
29838;SDS011;18669;53.356;-1.464;2022-10-16T23:52:49;10.30;;;3.70;;
29838;SDS011;18669;53.356;-1.464;2022-10-16T23:57:41;4.53;;;3.80;;
